TAP248 KLAX-LPPT
Flight info
| Callsign | TAP248 |
|---|---|
| Flight time | N/A |
| Altitude | 35000 |
| Route | OSHNN1 BEALE J146 DVC DCT KD54W DCT KD57Y DCT AYEGI DCT CNOTA J146 IOW DCT ENAME DCT MONKZ DCT UNBAR DCT CRL/N0463F370 DCT BEWEL DCT HERBA DCT SMYTH DCT WHATE DCT CELTK DCT FRILL DCT VITOL/M079F370 DCT AVAST DCT 42N060W 42N050W 42N040W/M079F390 42N030W 41N020W DCT ERPES/N0449F390 DCT XANEL DCT LAZET |
| Aircraft | A339/H-SADE1E2E3GHIJ3J5M1P2RWXY/LB2D1 |
Departure
| Time | N/A |
|---|---|
| Airport | Los Angeles International Airport (KLAX) |
Arrival
| Time | 2026-05-07 16:49 |
|---|---|
| Airport | Lisbon Humberto Delgado Airport (LPPT) |
| Time | Latitude | Longitude | Altitude | Speed | Heading |
|---|---|---|---|---|---|
| 2026-05-07 16:16 | 39.57780 | -12.98593 | 38892 ft | 474 kts | 112° |
| 2026-05-07 16:17 | 39.56888 | -12.94529 | 38889 ft | 474 kts | 112° |
| 2026-05-07 16:17 | 39.55076 | -12.86299 | 38895 ft | 475 kts | 112° |
| 2026-05-07 16:18 | 39.53265 | -12.78122 | 38895 ft | 476 kts | 112° |
| 2026-05-07 16:18 | 39.51442 | -12.69912 | 38906 ft | 478 kts | 112° |
| 2026-05-07 16:19 | 39.49600 | -12.61638 | 38896 ft | 479 kts | 112° |
| 2026-05-07 16:19 | 39.47752 | -12.53380 | 38905 ft | 480 kts | 112° |
| 2026-05-07 16:20 | 39.45904 | -12.45136 | 38907 ft | 480 kts | 112° |
| 2026-05-07 16:20 | 39.44039 | -12.36862 | 38896 ft | 480 kts | 112° |
| 2026-05-07 16:21 | 39.42173 | -12.28610 | 38896 ft | 482 kts | 113° |
| 2026-05-07 16:21 | 39.40232 | -12.20310 | 38890 ft | 479 kts | 116° |
| 2026-05-07 16:22 | 39.37878 | -12.12345 | 38914 ft | 479 kts | 118° |
| 2026-05-07 16:22 | 39.36649 | -12.08336 | 38769 ft | 481 kts | 118° |
| 2026-05-07 16:22 | 39.35428 | -12.04364 | 38278 ft | 479 kts | 118° |
| 2026-05-07 16:22 | 39.34213 | -12.00399 | 37766 ft | 474 kts | 118° |
| 2026-05-07 16:23 | 39.33005 | -11.96455 | 37251 ft | 470 kts | 118° |
| 2026-05-07 16:23 | 39.31810 | -11.92571 | 36742 ft | 469 kts | 118° |
| 2026-05-07 16:23 | 39.30606 | -11.88663 | 36288 ft | 469 kts | 118° |
| 2026-05-07 16:23 | 39.29402 | -11.84760 | 35803 ft | 470 kts | 118° |
| 2026-05-07 16:24 | 39.28205 | -11.80886 | 35236 ft | 471 kts | 118° |
| 2026-05-07 16:24 | 39.26992 | -11.76957 | 34680 ft | 470 kts | 117° |
| 2026-05-07 16:24 | 39.25785 | -11.73051 | 34094 ft | 470 kts | 118° |
| 2026-05-07 16:24 | 39.24579 | -11.69152 | 33500 ft | 470 kts | 117° |
| 2026-05-07 16:25 | 39.23367 | -11.65248 | 32910 ft | 469 kts | 117° |
| 2026-05-07 16:25 | 39.22171 | -11.61393 | 32327 ft | 468 kts | 117° |
| 2026-05-07 16:25 | 39.20956 | -11.57482 | 31735 ft | 467 kts | 117° |
| 2026-05-07 16:25 | 39.19752 | -11.53617 | 31146 ft | 467 kts | 117° |
| 2026-05-07 16:26 | 39.18556 | -11.49777 | 30554 ft | 466 kts | 116° |
| 2026-05-07 16:26 | 39.17356 | -11.45937 | 29950 ft | 466 kts | 116° |
| 2026-05-07 16:26 | 39.16150 | -11.42078 | 29559 ft | 468 kts | 116° |
| 2026-05-07 16:26 | 39.15335 | -11.39469 | 29304 ft | 467 kts | 116° |
| 2026-05-07 16:27 | 39.13729 | -11.34336 | 28782 ft | 463 kts | 117° |
| 2026-05-07 16:27 | 39.12589 | -11.30698 | 28406 ft | 459 kts | 117° |
| 2026-05-07 16:27 | 39.11388 | -11.26789 | 27945 ft | 457 kts | 115° |
| 2026-05-07 16:27 | 39.10313 | -11.22879 | 27076 ft | 464 kts | 114° |
| 2026-05-07 16:28 | 39.09280 | -11.18986 | 26117 ft | 470 kts | 114° |
| 2026-05-07 16:28 | 39.08233 | -11.15016 | 25436 ft | 469 kts | 113° |
| 2026-05-07 16:28 | 39.07184 | -11.11060 | 24893 ft | 465 kts | 114° |
| 2026-05-07 16:28 | 39.06137 | -11.07149 | 24353 ft | 461 kts | 114° |
| 2026-05-07 16:29 | 39.05108 | -11.03327 | 23823 ft | 457 kts | 114° |
| 2026-05-07 16:29 | 39.04059 | -10.99452 | 23289 ft | 453 kts | 114° |
| 2026-05-07 16:29 | 39.03029 | -10.95668 | 22775 ft | 450 kts | 114° |
| 2026-05-07 16:29 | 39.02001 | -10.91906 | 22309 ft | 446 kts | 114° |
| 2026-05-07 16:30 | 39.00983 | -10.88178 | 21861 ft | 441 kts | 114° |
| 2026-05-07 16:30 | 38.99973 | -10.84485 | 21420 ft | 436 kts | 114° |
| 2026-05-07 16:30 | 38.98976 | -10.80853 | 20959 ft | 432 kts | 114° |
| 2026-05-07 16:30 | 38.97992 | -10.77273 | 20494 ft | 428 kts | 113° |
| 2026-05-07 16:31 | 38.97007 | -10.73690 | 20029 ft | 424 kts | 113° |
| 2026-05-07 16:31 | 38.96019 | -10.70101 | 19552 ft | 420 kts | 113° |
| 2026-05-07 16:31 | 38.95055 | -10.66603 | 19084 ft | 416 kts | 113° |
| 2026-05-07 16:31 | 38.94092 | -10.63117 | 18604 ft | 413 kts | 112° |
| 2026-05-07 16:32 | 38.93141 | -10.59680 | 18137 ft | 409 kts | 112° |
| 2026-05-07 16:32 | 38.92197 | -10.56270 | 17686 ft | 406 kts | 112° |
| 2026-05-07 16:32 | 38.91257 | -10.52875 | 17233 ft | 402 kts | 112° |
| 2026-05-07 16:32 | 38.90335 | -10.49556 | 16769 ft | 398 kts | 112° |
| 2026-05-07 16:33 | 38.89405 | -10.46213 | 16310 ft | 395 kts | 112° |
| 2026-05-07 16:33 | 38.88497 | -10.42944 | 15812 ft | 393 kts | 112° |
| 2026-05-07 16:33 | 38.87577 | -10.39648 | 15302 ft | 391 kts | 112° |
| 2026-05-07 16:33 | 38.86668 | -10.36391 | 14870 ft | 387 kts | 111° |
| 2026-05-07 16:34 | 38.85768 | -10.33166 | 14458 ft | 382 kts | 112° |
| 2026-05-07 16:34 | 38.84881 | -10.29992 | 14059 ft | 378 kts | 112° |
| 2026-05-07 16:34 | 38.83991 | -10.26806 | 13657 ft | 374 kts | 112° |
| 2026-05-07 16:34 | 38.83125 | -10.23710 | 13266 ft | 370 kts | 112° |
| 2026-05-07 16:35 | 38.82261 | -10.20631 | 12856 ft | 366 kts | 112° |
| 2026-05-07 16:35 | 38.81403 | -10.17571 | 12463 ft | 363 kts | 112° |
| 2026-05-07 16:35 | 38.80562 | -10.14582 | 12072 ft | 360 kts | 112° |
| 2026-05-07 16:35 | 38.79711 | -10.11564 | 11672 ft | 357 kts | 111° |
| 2026-05-07 16:36 | 38.78880 | -10.08610 | 11285 ft | 353 kts | 112° |
| 2026-05-07 16:36 | 38.78053 | -10.05681 | 10897 ft | 351 kts | 111° |
| 2026-05-07 16:36 | 38.77224 | -10.02749 | 10502 ft | 348 kts | 112° |
| 2026-05-07 16:36 | 38.76406 | -9.99855 | 10145 ft | 344 kts | 111° |
| 2026-05-07 16:37 | 38.75606 | -9.97026 | 10043 ft | 332 kts | 112° |
| 2026-05-07 16:37 | 38.74839 | -9.94316 | 10029 ft | 318 kts | 111° |
| 2026-05-07 16:37 | 38.74098 | -9.91701 | 10005 ft | 306 kts | 112° |
| 2026-05-07 16:37 | 38.73389 | -9.89199 | 9973 ft | 294 kts | 112° |
| 2026-05-07 16:38 | 38.72709 | -9.86802 | 9920 ft | 284 kts | 112° |
| 2026-05-07 16:38 | 38.72030 | -9.84422 | 9629 ft | 284 kts | 112° |
| 2026-05-07 16:38 | 38.71352 | -9.82053 | 9322 ft | 283 kts | 111° |
| 2026-05-07 16:38 | 38.70680 | -9.79694 | 9039 ft | 282 kts | 112° |
| 2026-05-07 16:39 | 38.70007 | -9.77334 | 8750 ft | 281 kts | 112° |
| 2026-05-07 16:39 | 38.69338 | -9.74993 | 8467 ft | 280 kts | 112° |
| 2026-05-07 16:39 | 38.68671 | -9.72656 | 8197 ft | 279 kts | 112° |
| 2026-05-07 16:39 | 38.68008 | -9.70337 | 7929 ft | 277 kts | 112° |
| 2026-05-07 16:40 | 38.67354 | -9.68055 | 7662 ft | 275 kts | 112° |
| 2026-05-07 16:40 | 38.66694 | -9.65754 | 7406 ft | 274 kts | 112° |
| 2026-05-07 16:40 | 38.66040 | -9.63472 | 7138 ft | 272 kts | 112° |
| 2026-05-07 16:40 | 38.65394 | -9.61224 | 6893 ft | 271 kts | 112° |
| 2026-05-07 16:41 | 38.64749 | -9.58962 | 6587 ft | 270 kts | 110° |
| 2026-05-07 16:41 | 38.64297 | -9.56622 | 6287 ft | 272 kts | 103° |
| 2026-05-07 16:41 | 38.63957 | -9.54239 | 5936 ft | 275 kts | 101° |
| 2026-05-07 16:41 | 38.63620 | -9.51829 | 5625 ft | 276 kts | 102° |
| 2026-05-07 16:42 | 38.63269 | -9.49418 | 5341 ft | 276 kts | 102° |
| 2026-05-07 16:42 | 38.62909 | -9.47014 | 5070 ft | 276 kts | 102° |
| 2026-05-07 16:42 | 38.62539 | -9.44616 | 4805 ft | 275 kts | 102° |
| 2026-05-07 16:42 | 38.62164 | -9.42218 | 4521 ft | 273 kts | 102° |
| 2026-05-07 16:43 | 38.61797 | -9.39879 | 4286 ft | 262 kts | 102° |
| 2026-05-07 16:43 | 38.61440 | -9.37614 | 4144 ft | 258 kts | 102° |
| 2026-05-07 16:43 | 38.61093 | -9.35421 | 4142 ft | 247 kts | 102° |
| 2026-05-07 16:43 | 38.60760 | -9.33317 | 4136 ft | 235 kts | 103° |
| 2026-05-07 16:44 | 38.60440 | -9.31302 | 4119 ft | 224 kts | 103° |
| 2026-05-07 16:44 | 38.60141 | -9.29412 | 4096 ft | 214 kts | 103° |
| 2026-05-07 16:44 | 38.59852 | -9.27601 | 4078 ft | 202 kts | 103° |
| 2026-05-07 16:44 | 38.59579 | -9.25882 | 4067 ft | 189 kts | 103° |
| 2026-05-07 16:45 | 38.59587 | -9.24259 | 3918 ft | 184 kts | 68° |
| 2026-05-07 16:45 | 38.60406 | -9.23000 | 3706 ft | 193 kts | 32° |
| 2026-05-07 16:45 | 38.61621 | -9.22247 | 3476 ft | 194 kts | 19° |
| 2026-05-07 16:45 | 38.62889 | -9.21664 | 3234 ft | 194 kts | 18° |
| 2026-05-07 16:46 | 38.64147 | -9.21068 | 2988 ft | 194 kts | 19° |
| 2026-05-07 16:46 | 38.65409 | -9.20424 | 2734 ft | 195 kts | 20° |
| 2026-05-07 16:46 | 38.66662 | -9.19755 | 2476 ft | 196 kts | 20° |
| 2026-05-07 16:46 | 38.67924 | -9.19071 | 2216 ft | 193 kts | 20° |
| 2026-05-07 16:47 | 38.69128 | -9.18418 | 1963 ft | 186 kts | 19° |
| 2026-05-07 16:47 | 38.70294 | -9.17789 | 1697 ft | 177 kts | 19° |
| 2026-05-07 16:47 | 38.71402 | -9.17194 | 1478 ft | 167 kts | 19° |
| 2026-05-07 16:47 | 38.72452 | -9.16635 | 1286 ft | 161 kts | 18° |
| 2026-05-07 16:48 | 38.73470 | -9.16088 | 1083 ft | 154 kts | 19° |
| 2026-05-07 16:48 | 38.74446 | -9.15550 | 866 ft | 148 kts | 19° |
| 2026-05-07 16:48 | 38.75377 | -9.15056 | 697 ft | 140 kts | 18° |
| 2026-05-07 16:48 | 38.76279 | -9.14587 | 513 ft | 140 kts | 19° |
| 2026-05-07 16:49 | 38.77153 | -9.14108 | 390 ft | 132 kts | 19° |
| 2026-05-07 16:49 | 38.77861 | -9.13743 | 389 ft | 82 kts | 20° |
| 2026-05-07 16:49 | 38.78219 | -9.13534 | 389 ft | 36 kts | 34° |
| 2026-05-07 16:49 | 38.78346 | -9.13385 | 389 ft | 12 kts | 47° |
| 2026-05-07 16:50 | 38.78370 | -9.13291 | 389 ft | 9 kts | 124° |
| 2026-05-07 16:50 | 38.78311 | -9.13266 | 389 ft | 7 kts | 191° |
| 2026-05-07 16:50 | 38.78261 | -9.13293 | 389 ft | 8 kts | 203° |
| 2026-05-07 16:50 | 38.78202 | -9.13325 | 389 ft | 9 kts | 202° |
| 2026-05-07 16:51 | 38.78133 | -9.13360 | 389 ft | 11 kts | 201° |
| 2026-05-07 16:51 | 38.78059 | -9.13401 | 389 ft | 12 kts | 202° |
| 2026-05-07 16:51 | 38.77972 | -9.13400 | 389 ft | 13 kts | 168° |
| 2026-05-07 16:51 | 38.77880 | -9.13376 | 389 ft | 14 kts | 169° |
| 2026-05-07 16:52 | 38.77781 | -9.13350 | 389 ft | 14 kts | 168° |
| 2026-05-07 16:52 | 38.77678 | -9.13323 | 389 ft | 15 kts | 171° |
| 2026-05-07 16:52 | 38.77569 | -9.13314 | 389 ft | 15 kts | 172° |
| 2026-05-07 16:52 | 38.77463 | -9.13287 | 389 ft | 12 kts | 168° |
| 2026-05-07 16:53 | 38.77420 | -9.13263 | 389 ft | 5 kts | 121° |
| 2026-05-07 16:53 | 38.77419 | -9.13208 | 389 ft | 7 kts | 80° |
| 2026-05-07 16:53 | 38.77426 | -9.13160 | 389 ft | 3 kts | 78° |
| 2026-05-07 16:53 | 38.77427 | -9.13153 | 389 ft | 0 kts | 78° |